Komsomol'sk-na-Amure, Russia
Current Conditions -  °F | °C
As of 2:30 PM on Friday 31 Oct 2014 (Local Time) from UHHH Reporting Station
Clear Clear  
Wind Chill: 32°   Ceiling: Unl
Heat Index: 41°   Visibility: 6mi
Dew Point: 18°   Wind: 18mph
Humidity: 39%   Direction: 240°WSW
Pressure: 30.18"   Gusts: NA
Location:  50.37°N, 136.59°E
Report Text: UHHH 310430Z 24008MPS CAVOK 05/M08 Q1022 NOSIG RMK QFE760/101323090060
Loading
Personal Weather Stations






























Interactive Weather Map
Tropical Storm Tracking
New forecast layout! Learn more

10-Day Weather Forecast

Advertisements
Track Severe Weather on mobile